createdAt,value
2023-02-09T00:00:17.541Z,10.97
2023-02-09T00:02:45.240Z,11.60
2023-02-09T00:05:12.141Z,11.10
2023-02-09T02:06:13.357Z,10.37
2023-02-09T02:08:45.555Z,11.10
2023-02-09T02:11:12.679Z,10.70
2023-02-09T02:13:39.305Z,11.27
2023-02-09T02:16:35.233Z,11.93
2023-02-09T02:19:08.991Z,11.40
2023-02-09T02:22:13.144Z,11.47
2023-02-09T02:25:13.025Z,10.43
2023-02-09T02:27:55.971Z,10.60
2023-02-09T02:30:43.536Z,12.07
2023-02-09T02:33:19.468Z,9.97
2023-02-09T02:36:01.106Z,10.60
2023-02-09T02:38:36.685Z,11.03
2023-02-09T02:41:52.132Z,10.13
2023-02-09T02:44:19.654Z,10.87
2023-02-09T02:46:51.822Z,11.47
2023-02-09T02:49:37.366Z,11.33
2023-02-09T02:52:08.221Z,11.60
2023-02-09T02:54:39.925Z,9.13
2023-02-09T02:57:14.059Z,9.87
2023-02-09T03:00:04.008Z,11.80
2023-02-09T03:02:35.000Z,10.70
2023-02-09T03:05:05.200Z,11.27
2023-02-09T03:07:32.938Z,11.23
2023-02-09T03:10:01.469Z,10.40
2023-02-09T03:13:08.562Z,11.00
2023-02-09T03:15:42.443Z,10.00
2023-02-09T03:18:21.414Z,9.23
2023-02-09T03:21:08.854Z,10.80
2023-02-09T03:23:41.993Z,10.30
2023-02-09T03:26:14.358Z,9.50
2023-02-09T03:28:44.468Z,12.23
2023-02-09T03:31:11.519Z,10.57
2023-02-09T03:33:39.471Z,10.77
2023-02-09T03:36:15.138Z,11.30
2023-02-09T03:38:41.971Z,11.50
2023-02-09T03:41:08.833Z,11.00
2023-02-09T03:43:54.025Z,10.40
2023-02-09T03:46:20.966Z,10.70
2023-02-09T03:48:47.935Z,11.70
2023-02-09T03:51:14.535Z,9.90
2023-02-09T03:53:41.110Z,10.93
2023-02-09T03:56:10.565Z,11.10
2023-02-09T03:58:37.269Z,11.03
2023-02-09T04:01:05.976Z,9.43
2023-02-09T04:03:32.704Z,8.60
2023-02-09T04:05:59.886Z,10.50
2023-02-09T04:08:29.707Z,10.10
2023-02-09T04:10:57.777Z,12.80
2023-02-09T04:13:24.829Z,10.40
2023-02-09T04:15:51.866Z,10.47
2023-02-09T04:18:18.897Z,10.50
2023-02-09T04:20:45.863Z,10.00
2023-02-09T04:23:12.919Z,10.93
2023-02-09T04:25:39.730Z,10.83
2023-02-09T04:28:07.284Z,10.30
2023-02-09T04:30:33.975Z,10.27
2023-02-09T04:33:00.643Z,10.13
2023-02-09T04:35:27.254Z,12.63
2023-02-09T04:37:53.884Z,10.73
2023-02-09T04:40:20.597Z,19.27
2023-02-09T04:42:48.045Z,14.60
2023-02-09T04:45:14.793Z,11.27
2023-02-09T04:47:41.370Z,9.97
2023-02-09T04:50:08.323Z,10.43
2023-02-09T04:52:34.936Z,9.43
2023-02-09T04:55:01.623Z,12.43
2023-02-09T04:57:46.876Z,12.90
2023-02-09T05:00:14.123Z,12.07
2023-02-09T05:02:40.738Z,12.60
2023-02-09T05:05:07.725Z,11.80
2023-02-09T05:07:34.399Z,13.03
2023-02-09T05:10:01.032Z,11.33
2023-02-09T05:12:27.719Z,11.60
2023-02-09T05:14:54.283Z,12.37
2023-02-09T05:17:21.226Z,13.83
2023-02-09T05:19:48.513Z,11.83
2023-02-09T05:22:15.619Z,12.50
2023-02-09T05:24:42.210Z,14.27
2023-02-09T05:27:08.877Z,14.97
2023-02-09T05:29:35.667Z,12.50
2023-02-09T05:32:02.407Z,11.43
2023-02-09T05:34:29.047Z,10.53
2023-02-09T05:36:55.646Z,8.70
2023-02-09T05:39:22.881Z,9.50
2023-02-09T05:42:08.035Z,10.60
2023-02-09T05:44:34.726Z,10.30
2023-02-09T05:47:01.339Z,9.63
2023-02-09T05:49:27.935Z,10.17
2023-02-09T05:51:54.527Z,10.50
2023-02-09T05:54:21.235Z,8.60
2023-02-09T05:56:48.077Z,10.87
2023-02-09T05:59:14.711Z,10.57
2023-02-09T06:01:41.385Z,11.00
2023-02-09T06:04:09.224Z,10.57
2023-02-09T06:06:36.329Z,25.73
2023-02-09T06:09:03.703Z,26.67
2023-02-09T06:11:30.343Z,21.83
2023-02-09T06:13:56.974Z,24.27
2023-02-09T06:16:23.850Z,24.10
2023-02-09T06:18:50.490Z,25.13
2023-02-09T06:21:17.357Z,19.80
2023-02-09T06:23:44.030Z,16.93
2023-02-09T06:26:13.165Z,17.50
2023-02-09T06:28:40.209Z,17.23
2023-02-09T06:31:07.534Z,16.37
2023-02-09T06:33:35.474Z,18.37
2023-02-09T06:36:03.253Z,14.03
2023-02-09T06:38:34.479Z,15.77
2023-02-09T06:41:01.161Z,17.00
2023-02-09T06:43:28.096Z,18.40
2023-02-09T06:45:54.793Z,19.77
2023-02-09T06:48:21.548Z,36.80
2023-02-09T06:50:48.403Z,33.80
2023-02-09T06:53:16.177Z,28.90
2023-02-09T06:55:42.834Z,27.83
2023-02-09T06:58:09.676Z,24.30
2023-02-09T07:00:36.360Z,22.30
2023-02-09T07:03:03.374Z,15.63
2023-02-09T07:05:31.531Z,15.43
2023-02-09T07:07:58.261Z,16.57
2023-02-09T07:10:25.212Z,13.37
2023-02-09T07:12:51.897Z,12.10
2023-02-09T07:15:18.722Z,13.27
2023-02-09T07:17:45.409Z,20.87
2023-02-09T07:20:12.571Z,19.43
2023-02-09T07:22:39.378Z,17.53
2023-02-09T07:25:06.587Z,15.40
2023-02-09T07:27:33.458Z,14.93
2023-02-09T07:30:01.155Z,28.40
2023-02-09T07:32:28.406Z,30.17
2023-02-09T07:34:55.042Z,22.13
2023-02-09T07:37:21.697Z,15.53
2023-02-09T07:39:48.604Z,18.40
2023-02-09T07:42:15.517Z,14.27
2023-02-09T07:44:51.568Z,15.93
2023-02-09T07:47:18.230Z,15.70
2023-02-09T07:49:44.862Z,23.90
2023-02-09T07:52:11.680Z,52.87
2023-02-09T07:54:38.294Z,51.43
2023-02-09T07:57:07.469Z,54.77
2023-02-09T07:59:34.111Z,47.50
2023-02-09T08:02:01.142Z,31.87
2023-02-09T08:04:27.820Z,22.77
2023-02-09T08:06:55.320Z,14.67
2023-02-09T08:09:21.922Z,15.93
2023-02-09T08:11:53.653Z,14.33
2023-02-09T08:14:30.774Z,12.43
2023-02-09T08:17:27.943Z,10.97
2023-02-09T08:20:00.730Z,10.57
2023-02-09T08:22:31.827Z,10.23
2023-02-09T08:25:01.703Z,10.63
2023-02-09T08:27:28.957Z,11.17
2023-02-09T08:29:55.852Z,9.93
2023-02-09T08:32:22.846Z,9.93
2023-02-09T08:34:49.524Z,10.57
2023-02-09T08:37:16.166Z,9.63
2023-02-09T08:39:44.671Z,10.77
2023-02-09T08:42:11.374Z,10.33
2023-02-09T08:44:37.998Z,9.37
2023-02-09T08:47:04.842Z,12.03
2023-02-09T08:49:31.569Z,10.43
2023-02-09T08:51:58.208Z,9.73
2023-02-09T08:54:25.474Z,12.57
2023-02-09T08:56:52.160Z,10.37
2023-02-09T08:59:20.150Z,10.47
2023-02-09T09:01:46.840Z,9.47
2023-02-09T09:04:13.587Z,10.50
2023-02-09T09:06:40.166Z,10.20
2023-02-09T09:09:06.824Z,8.90
2023-02-09T09:11:33.658Z,11.40
2023-02-09T09:14:00.267Z,9.77
2023-02-09T09:16:26.982Z,9.60
2023-02-09T09:18:53.599Z,12.50
2023-02-09T09:21:20.289Z,9.40
2023-02-09T09:23:48.078Z,10.77
2023-02-09T09:26:15.881Z,9.40
2023-02-09T09:28:43.184Z,9.50
2023-02-09T09:31:12.762Z,10.80
2023-02-09T09:33:39.521Z,10.90
2023-02-09T09:36:07.187Z,9.20
2023-02-09T09:38:38.034Z,10.83
2023-02-09T09:41:17.311Z,9.83
2023-02-09T09:43:44.097Z,9.90
2023-02-09T09:46:16.656Z,10.00
2023-02-09T09:48:47.119Z,10.13
2023-02-09T09:51:21.137Z,11.00
2023-02-09T09:53:53.124Z,8.97
2023-02-09T09:56:21.380Z,8.10
2023-02-09T09:58:49.852Z,9.13
2023-02-09T10:01:20.350Z,10.70
2023-02-09T10:03:47.382Z,9.30
2023-02-09T10:06:17.500Z,9.03
2023-02-09T10:08:51.711Z,8.50
2023-02-09T10:11:23.854Z,8.63
2023-02-09T10:13:55.561Z,7.70
2023-02-09T10:16:25.512Z,7.33
2023-02-09T10:18:59.928Z,10.20
2023-02-09T10:21:30.439Z,7.80
2023-02-09T10:24:00.136Z,6.63
2023-02-09T10:26:30.977Z,10.57
2023-02-09T10:29:07.115Z,9.80
2023-02-09T10:31:38.744Z,5.80
2023-02-09T10:34:08.518Z,6.90
2023-02-09T10:37:10.598Z,7.57
2023-02-09T10:39:37.319Z,6.33
2023-02-09T10:42:19.194Z,6.90
2023-02-09T10:44:50.414Z,5.70
2023-02-09T10:47:20.008Z,8.60
2023-02-09T10:50:13.577Z,6.23
2023-02-09T10:53:14.342Z,6.13
2023-02-09T10:55:43.030Z,5.80
2023-02-09T10:58:09.579Z,5.40
2023-02-09T11:00:42.201Z,6.53
2023-02-09T11:03:27.566Z,6.40
2023-02-09T11:05:58.814Z,7.03
2023-02-09T11:08:42.809Z,5.93
2023-02-09T11:11:22.639Z,7.23
2023-02-09T11:13:49.330Z,6.13
2023-02-09T11:16:15.882Z,5.80
2023-02-09T11:18:47.129Z,7.30
2023-02-09T11:21:40.211Z,5.50
2023-02-09T11:24:26.502Z,18.37
2023-02-09T11:27:17.916Z,5.30
2023-02-09T11:30:15.294Z,6.17
2023-02-09T11:33:02.789Z,6.43
2023-02-09T11:35:46.149Z,6.00
2023-02-09T11:38:17.482Z,6.20
2023-02-09T11:40:50.306Z,5.67
2023-02-09T11:43:32.287Z,5.80
2023-02-09T11:46:05.673Z,5.20
2023-02-09T11:48:38.095Z,6.57
2023-02-09T11:51:11.803Z,6.10
2023-02-09T11:53:55.515Z,6.00
2023-02-09T11:56:27.943Z,7.40
2023-02-09T11:58:57.507Z,7.37
2023-02-09T12:01:50.814Z,6.57
2023-02-09T12:04:41.789Z,5.53
2023-02-09T12:07:40.375Z,7.50
2023-02-09T12:10:09.939Z,6.20
2023-02-09T12:13:20.765Z,6.80
2023-02-09T12:15:58.954Z,7.73
2023-02-09T12:18:32.940Z,7.00
2023-02-09T12:21:05.304Z,6.93
2023-02-09T12:23:41.884Z,6.60
2023-02-09T12:26:11.517Z,7.40
2023-02-09T12:28:41.149Z,6.80
2023-02-09T12:31:15.885Z,7.60
2023-02-09T12:33:45.465Z,8.50
2023-02-09T12:36:16.100Z,7.00
2023-02-09T12:38:51.584Z,8.70
2023-02-09T12:41:32.093Z,7.00
2023-02-09T12:44:25.088Z,7.20
2023-02-09T12:46:55.575Z,7.50
2023-02-09T12:49:27.989Z,7.83
2023-02-09T12:52:00.763Z,8.10
2023-02-09T12:54:42.474Z,8.57
2023-02-09T12:57:15.357Z,7.60
2023-02-09T12:59:51.360Z,7.43
2023-02-09T13:02:29.792Z,8.27
2023-02-09T13:05:14.758Z,8.10
2023-02-09T13:08:04.048Z,8.63
2023-02-09T13:10:41.164Z,7.70
2023-02-09T13:13:10.797Z,9.07
2023-02-09T13:15:56.202Z,7.87
2023-02-09T13:18:59.961Z,9.00
2023-02-09T13:21:27.215Z,8.90
2023-02-09T13:23:57.006Z,9.70
2023-02-09T13:26:26.742Z,10.53
2023-02-09T13:29:21.724Z,8.07
2023-02-09T13:32:03.536Z,8.80
2023-02-09T13:34:48.541Z,8.80
2023-02-09T13:37:33.506Z,10.10
2023-02-09T13:40:03.293Z,8.93
2023-02-09T13:42:35.036Z,8.90
2023-02-09T13:45:02.002Z,8.23
2023-02-09T13:47:28.989Z,8.80
2023-02-09T13:50:13.685Z,10.43
2023-02-09T13:52:40.677Z,9.53
2023-02-09T13:55:19.939Z,8.73
2023-02-09T13:57:56.108Z,8.57
2023-02-09T14:00:25.652Z,9.03
2023-02-09T14:02:57.111Z,8.10
2023-02-09T14:05:37.392Z,8.60
2023-02-09T14:08:04.374Z,10.27
2023-02-09T14:10:33.716Z,8.63
2023-02-09T14:13:15.486Z,8.53
2023-02-09T14:16:06.268Z,9.80
2023-02-09T14:18:51.121Z,9.40
2023-02-09T14:21:21.540Z,9.30
2023-02-09T14:24:03.064Z,8.33
2023-02-09T14:26:42.524Z,9.40
2023-02-09T14:29:30.571Z,9.23
2023-02-09T14:32:06.914Z,8.97
2023-02-09T14:34:35.784Z,9.73
2023-02-09T14:37:13.365Z,9.10
2023-02-09T14:39:54.872Z,8.63
2023-02-09T14:42:22.155Z,8.90
2023-02-09T14:44:57.687Z,8.30
2023-02-09T14:47:40.360Z,9.90
2023-02-09T14:50:15.017Z,10.53
2023-02-09T14:52:46.793Z,12.67
2023-02-09T14:55:40.591Z,14.80
2023-02-09T14:58:12.259Z,63.00
2023-02-09T15:00:38.861Z,16.90
2023-02-09T15:03:05.599Z,39.37
2023-02-09T15:05:32.396Z,31.50
2023-02-09T15:08:03.596Z,13.93
2023-02-09T15:10:35.229Z,11.20
2023-02-09T15:13:03.077Z,20.43
2023-02-09T15:15:29.781Z,15.47
2023-02-09T15:17:58.593Z,14.30
2023-02-09T15:20:25.762Z,80.40
2023-02-09T15:22:53.861Z,39.97
2023-02-09T15:25:21.257Z,30.30
2023-02-09T15:27:52.844Z,31.23
2023-02-09T15:30:26.376Z,13.90
2023-02-09T15:32:53.646Z,55.43
2023-02-09T15:35:23.614Z,32.60
2023-02-09T15:37:56.638Z,18.10
2023-02-09T15:40:45.716Z,13.77
2023-02-09T15:43:36.358Z,12.07
2023-02-09T15:46:21.556Z,11.10
2023-02-09T15:48:48.166Z,11.60
2023-02-09T15:51:15.498Z,10.63
2023-02-09T15:53:42.994Z,10.80
2023-02-09T15:56:11.593Z,10.47
2023-02-09T15:58:44.946Z,12.07
2023-02-09T16:01:16.723Z,11.47
2023-02-09T16:03:44.201Z,11.40
2023-02-09T16:06:13.128Z,12.30
2023-02-09T16:08:39.904Z,12.30
2023-02-09T16:11:17.145Z,13.07
2023-02-09T16:13:43.824Z,11.80
2023-02-09T16:16:16.997Z,11.70
2023-02-09T16:18:45.286Z,12.77
2023-02-09T16:21:24.065Z,12.63
2023-02-09T16:23:53.845Z,15.80
2023-02-09T16:26:21.027Z,15.87
2023-02-09T16:28:47.676Z,16.07
2023-02-09T16:31:14.340Z,17.23
2023-02-09T16:33:43.155Z,17.30
2023-02-09T16:36:16.840Z,16.37
2023-02-09T16:38:43.669Z,17.63
2023-02-09T16:41:34.364Z,14.00
2023-02-09T16:44:04.726Z,14.53
2023-02-09T16:46:31.886Z,15.30
2023-02-09T16:49:00.894Z,13.70
2023-02-09T16:51:27.627Z,15.67
2023-02-09T16:53:54.903Z,13.63
2023-02-09T16:56:21.633Z,13.70
2023-02-09T16:58:48.729Z,14.97
2023-02-09T17:01:21.703Z,15.20
2023-02-09T17:03:50.998Z,17.80
2023-02-09T17:06:20.665Z,15.57
2023-02-09T17:08:48.278Z,17.33
2023-02-09T17:11:21.357Z,18.07
2023-02-09T17:13:47.990Z,19.00
2023-02-09T17:16:22.224Z,17.27
2023-02-09T17:18:55.148Z,16.93
2023-02-09T17:21:24.813Z,20.87
2023-02-09T17:23:52.353Z,18.97
2023-02-09T17:26:19.238Z,20.33
2023-02-09T17:28:45.838Z,20.30
2023-02-09T17:31:26.414Z,19.83
2023-02-09T17:33:56.704Z,16.33
2023-02-09T17:36:27.381Z,16.23
2023-02-09T17:38:57.134Z,17.27
2023-02-09T17:41:23.654Z,17.20
2023-02-09T17:43:52.656Z,18.73
2023-02-09T17:46:20.164Z,22.17
2023-02-09T17:48:47.915Z,24.50
2023-02-09T17:51:20.743Z,24.70
2023-02-09T17:53:48.860Z,23.40
2023-02-09T17:56:16.825Z,22.63
2023-02-09T17:58:44.562Z,23.40
2023-02-09T18:01:22.119Z,22.40
2023-02-09T18:03:49.896Z,24.83
2023-02-09T18:06:20.910Z,21.20
2023-02-09T18:08:47.497Z,21.00
2023-02-09T18:11:16.031Z,22.07
2023-02-09T18:13:42.640Z,21.10
2023-02-09T18:16:09.745Z,22.50
2023-02-09T18:18:36.381Z,21.47
2023-02-09T18:21:03.079Z,19.30
2023-02-09T18:23:29.756Z,22.73
2023-02-09T18:25:56.379Z,19.70
2023-02-09T18:28:23.170Z,20.07
2023-02-09T18:30:50.051Z,17.30
2023-02-09T18:33:16.799Z,16.00
2023-02-09T18:35:46.993Z,17.00
2023-02-09T18:38:14.822Z,15.10
2023-02-09T18:40:41.676Z,20.17
2023-02-09T18:43:08.632Z,17.53
2023-02-09T18:45:35.371Z,14.67
2023-02-09T18:48:02.180Z,21.23
2023-02-09T18:50:31.121Z,20.67
2023-02-09T18:53:02.842Z,23.60
2023-02-09T18:55:31.937Z,23.00
2023-02-09T18:58:00.327Z,21.83
2023-02-09T19:00:27.420Z,25.30
2023-02-09T19:02:57.841Z,25.77
2023-02-09T19:05:32.837Z,39.23
2023-02-09T19:07:59.753Z,20.73
2023-02-09T19:10:27.366Z,21.40
2023-02-09T19:12:54.354Z,20.83
2023-02-09T19:15:22.563Z,18.60
2023-02-09T19:17:49.242Z,18.33
2023-02-09T19:20:21.912Z,21.90
2023-02-09T19:22:51.517Z,24.20
2023-02-09T19:25:19.459Z,26.80
2023-02-09T19:27:46.197Z,20.00
2023-02-09T19:30:16.108Z,19.63
2023-02-09T19:32:43.000Z,17.17
2023-02-09T19:35:09.735Z,15.17
2023-02-09T19:37:37.439Z,16.90
2023-02-09T19:40:05.173Z,17.30
2023-02-09T19:42:32.657Z,19.50
2023-02-09T19:44:59.614Z,22.83
2023-02-09T19:47:27.351Z,22.83
2023-02-09T19:49:58.341Z,16.27
2023-02-09T19:52:28.099Z,18.87
2023-02-09T19:54:57.294Z,18.23
2023-02-09T19:57:24.345Z,25.27
2023-02-09T19:59:53.468Z,29.93
2023-02-09T20:02:20.111Z,29.47
2023-02-09T20:04:46.753Z,24.47
2023-02-09T20:07:14.367Z,25.97
2023-02-09T20:09:41.606Z,22.57
2023-02-09T20:12:08.256Z,18.87
2023-02-09T20:14:35.093Z,20.30
2023-02-09T20:17:01.732Z,26.53
2023-02-09T20:19:28.427Z,19.47
2023-02-09T20:21:55.061Z,17.77
2023-02-09T20:24:22.494Z,15.60
2023-02-09T20:26:49.218Z,14.10
2023-02-09T20:29:16.798Z,15.37
2023-02-09T20:31:43.630Z,14.10
2023-02-09T20:34:13.698Z,13.70
2023-02-09T20:36:41.786Z,15.33
2023-02-09T20:39:13.228Z,15.47
2023-02-09T20:41:59.887Z,15.17
2023-02-09T20:44:45.129Z,16.93
2023-02-09T20:47:11.747Z,15.97
2023-02-09T20:49:40.650Z,31.37
2023-02-09T20:52:08.889Z,23.77
2023-02-09T20:54:36.336Z,16.83
2023-02-09T20:57:03.930Z,17.07
2023-02-09T20:59:31.108Z,17.20
2023-02-09T21:01:58.530Z,17.30
2023-02-09T21:04:30.103Z,17.93
2023-02-09T21:06:58.697Z,16.50
2023-02-09T21:09:26.588Z,13.83
2023-02-09T21:11:56.009Z,13.53
2023-02-09T21:14:27.925Z,14.97
2023-02-09T21:17:05.941Z,12.27
2023-02-09T21:19:34.669Z,11.90
2023-02-09T21:22:01.611Z,10.90
2023-02-09T21:24:28.253Z,13.50
2023-02-09T21:26:54.905Z,14.93
2023-02-09T21:29:21.614Z,15.13
2023-02-09T21:31:48.328Z,17.50
2023-02-09T21:34:16.156Z,16.37
2023-02-09T21:36:43.545Z,14.77
2023-02-09T21:39:10.192Z,14.37
2023-02-09T21:41:55.617Z,12.70
2023-02-09T21:44:22.326Z,11.70
2023-02-09T21:46:50.022Z,12.97
2023-02-09T21:49:16.835Z,10.53
2023-02-09T21:51:43.485Z,10.50
2023-02-09T21:54:17.578Z,12.23
2023-02-09T21:56:45.149Z,11.97
2023-02-09T21:59:12.012Z,13.40
2023-02-09T22:01:39.491Z,12.43
2023-02-09T22:04:06.388Z,13.60
2023-02-09T22:06:33.077Z,14.10
2023-02-09T22:09:02.775Z,10.47
2023-02-09T22:11:29.941Z,11.57
2023-02-09T22:13:56.567Z,12.77
2023-02-09T22:16:24.369Z,11.47
2023-02-09T22:18:51.413Z,11.50
2023-02-09T22:21:18.588Z,9.80
2023-02-09T22:23:45.637Z,10.30
2023-02-09T22:26:13.894Z,11.20
2023-02-09T22:28:41.694Z,12.40
2023-02-09T22:31:15.918Z,10.97
2023-02-09T22:33:42.770Z,12.73
2023-02-09T22:36:12.837Z,12.03
2023-02-09T22:38:39.642Z,12.30
2023-02-09T22:41:08.031Z,10.30
2023-02-09T22:43:34.999Z,12.10
2023-02-09T22:46:01.697Z,9.00
2023-02-09T22:48:28.440Z,9.60
2023-02-09T22:50:55.197Z,9.10
2023-02-09T22:53:21.803Z,9.20
2023-02-09T22:55:49.437Z,9.97
2023-02-09T22:58:16.268Z,9.60
2023-02-09T23:00:43.031Z,9.13
2023-02-09T23:03:09.767Z,8.97
2023-02-09T23:05:36.441Z,10.43
2023-02-09T23:08:03.104Z,9.50
2023-02-09T23:10:30.642Z,10.07
2023-02-09T23:12:57.270Z,9.27
2023-02-09T23:15:23.934Z,8.00
2023-02-09T23:17:50.727Z,8.00
2023-02-09T23:20:17.761Z,8.90
2023-02-09T23:22:44.594Z,7.80
2023-02-09T23:25:11.194Z,8.00
2023-02-09T23:27:37.768Z,8.63
2023-02-09T23:30:04.755Z,9.13
2023-02-09T23:32:31.321Z,9.80
2023-02-09T23:37:37.511Z,12.30
2023-02-09T23:40:04.850Z,10.97
2023-02-09T23:42:31.519Z,10.20
2023-02-09T23:44:58.304Z,9.03
2023-02-09T23:47:24.953Z,8.03
2023-02-09T23:49:51.512Z,8.10
2023-02-09T23:52:18.243Z,10.23
2023-02-09T23:54:44.799Z,10.90
2023-02-09T23:57:11.472Z,8.80
2023-02-09T23:59:38.731Z,10.07
